»·PEaware :: N3486 KSAN-KLAX

N3486 :: KSAN-KLAX

FLIGHT INFORMATION

Flight Status: Arrived
Operator: Privately registered:
United States
More flights under this callsign
Pilot: Joseph J. (19398)
Aircraft: PILATUS PC-12 EAGLE
(PC12)
More flights by this aircraft type
Origin: KSAN San Diego Intl-Lindbergh
United States
Destination: KLAX Los Angeles Intl
United States
More flights between these airports :: More routes between these airports
Route: +PEBLE6 SLI
File this flight plan on PilotEdge
Remarks: CAT 1
Altitude:
(Current/Filed)
12,000ft
Speed:
(Current/Filed)
200kts
Departed: 15-Dec-18 10:42 AM
Arrived: 15-Dec-18 11:16 AM
Distance/Time
Traveled:
94nm/0:33
Distance/Time
To Go:
Arrived

Flight Plot

Page will automatically refresh every two minutes.


Map Options




Map Legend


Flown Route
Filed Route
Departure Airport
Arrival Airport
Navaid (VOR, NDB)
Fix

Horizontal Profiles

Position Reports

Time Latitude Longitude Heading Altitude Ground
Speed
15-Dec-18 10:23 32.732420 -117.176641 193 22ft 0kts
15-Dec-18 10:24 32.732420 -117.176641 193 22ft 0kts
15-Dec-18 10:25 32.732420 -117.176641 193 22ft 0kts
15-Dec-18 10:26 32.732420 -117.176641 193 22ft 0kts
15-Dec-18 10:27 32.732420 -117.176641 193 22ft 0kts
15-Dec-18 10:28 32.732420 -117.176641 193 22ft 0kts
15-Dec-18 10:29 32.732420 -117.176641 193 22ft 0kts
15-Dec-18 10:30 32.732420 -117.176641 193 22ft 0kts
15-Dec-18 10:31 32.732420 -117.176641 193 22ft 0kts
15-Dec-18 10:32 32.732420 -117.176641 193 22ft 0kts
15-Dec-18 10:33 32.732420 -117.176641 193 22ft 0kts
15-Dec-18 10:34 32.732214 -117.176686 186 21ft 0kts
15-Dec-18 10:35 32.732214 -117.176686 186 21ft 0kts
15-Dec-18 10:36 32.732214 -117.176686 186 21ft 0kts
15-Dec-18 10:37 32.732214 -117.176686 186 21ft 0kts
15-Dec-18 10:38 32.731154 -117.175713 138 21ft 0kts
15-Dec-18 10:39 32.731154 -117.175713 138 21ft 0kts
15-Dec-18 10:40 32.730345 -117.176400 287 20ft 37kts
15-Dec-18 10:41 32.739816 -117.211355 316 1119ft 137kts
15-Dec-18 10:42 32.765504 -117.250610 305 2550ft 166kts
15-Dec-18 10:43 32.793352 -117.298368 304 3765ft 183kts
15-Dec-18 10:44 32.822678 -117.349152 304 4967ft 190kts
15-Dec-18 10:45 32.852730 -117.401291 304 6165ft 193kts
15-Dec-18 10:46 32.889646 -117.446038 330 7365ft 193kts
15-Dec-18 10:47 32.937769 -117.479959 330 7980ft 220kts
15-Dec-18 10:48 32.982821 -117.532011 308 7979ft 234kts
15-Dec-18 10:49 33.023114 -117.593311 308 7981ft 236kts
15-Dec-18 10:50 33.063624 -117.654923 307 7982ft 238kts
15-Dec-18 10:51 33.103008 -117.715002 306 7981ft 238kts
15-Dec-18 10:52 33.143611 -117.777466 306 7980ft 238kts
15-Dec-18 10:53 33.186994 -117.836861 337 7715ft 246kts
15-Dec-18 10:54 33.249077 -117.860435 341 6874ft 219kts
15-Dec-18 10:55 33.305839 -117.881108 342 6167ft 211kts
15-Dec-18 10:56 33.361676 -117.901351 342 5467ft 209kts
15-Dec-18 10:57 33.417220 -117.921504 342 4788ft 208kts
15-Dec-18 10:58 33.471949 -117.941379 342 4286ft 205kts
15-Dec-18 10:59 33.526186 -117.961098 342 3786ft 204kts
15-Dec-18 11:00 33.580294 -117.980493 348 3284ft 203kts
15-Dec-18 11:01 33.635878 -117.990691 351 2981ft 198kts
15-Dec-18 11:02 33.689729 -118.000340 351 2982ft 198kts
15-Dec-18 11:03 33.745561 -118.010339 351 2981ft 206kts
15-Dec-18 11:04 33.802576 -118.020524 351 2981ft 208kts
15-Dec-18 11:05 33.859953 -118.030766 351 2981ft 209kts
15-Dec-18 11:06 33.915945 -118.040725 351 2980ft 197kts
15-Dec-18 11:07 33.968957 -118.050163 351 2981ft 188kts
15-Dec-18 11:08 34.011787 -118.073747 270 2994ft 183kts
15-Dec-18 11:09 33.991223 -118.126179 241 2986ft 183kts
15-Dec-18 11:10 33.965558 -118.182415 241 2985ft 197kts
15-Dec-18 11:11 33.955111 -118.246046 258 2310ft 182kts
15-Dec-18 11:12 33.945368 -118.301721 264 1256ft 150kts
15-Dec-18 11:13 33.941348 -118.342465 262 818ft 109kts
15-Dec-18 11:14 33.937888 -118.376811 262 252ft 95kts
15-Dec-18 11:15 33.936193 -118.398321 280 109ft 19kts
15-Dec-18 11:16 33.936546 -118.399488 289 111ft 0kts
15-Dec-18 11:17 33.936615 -118.401064 260 114ft 11kts
15-Dec-18 11:19 33.936202 -118.404885 261 118ft 12kts
15-Dec-18 11:20 33.933720 -118.406363 84 119ft 13kts
15-Dec-18 11:21 33.934319 -118.400417 79 113ft 15kts
15-Dec-18 11:22 33.933044 -118.398779 175 110ft 0kts

Navigation Log

Ident Type
Flight plan parsing failed, navigation log unavailable